createdAt,value
2022-08-29T00:00:20.935Z,17.57
2022-08-29T00:01:10.390Z,17.57
2022-08-29T00:02:11.427Z,17.56
2022-08-29T00:03:12.563Z,17.56
2022-08-29T00:04:11.293Z,14
2022-08-29T00:05:10.910Z,17.56
2022-08-29T00:06:10.962Z,17.56
2022-08-29T00:07:11.139Z,17.56
2022-08-29T00:08:10.582Z,17.56
2022-08-29T00:09:10.841Z,17.56
2022-08-29T00:10:11.142Z,17.56
2022-08-29T00:11:10.430Z,17.56
2022-08-29T00:12:11.457Z,17.56
2022-08-29T00:13:10.881Z,17.56
2022-08-29T00:14:38.596Z,17.53
2022-08-29T00:15:11.142Z,17.53
2022-08-29T00:16:10.739Z,17.52
2022-08-29T00:17:11.338Z,17.53
2022-08-29T00:18:11.393Z,17.5
2022-08-29T00:19:11.404Z,17.5
2022-08-29T00:20:11.160Z,17.5
2022-08-29T00:21:10.877Z,17.5
2022-08-29T00:22:10.986Z,17.51
2022-08-29T00:23:10.545Z,17.51
2022-08-29T00:24:10.770Z,17.5
2022-08-29T00:25:11.388Z,17.5
2022-08-29T00:26:10.779Z,17.5
2022-08-29T00:27:10.817Z,17.5
2022-08-29T00:28:11.148Z,17.5
2022-08-29T00:29:10.224Z,17.5
2022-08-29T00:30:10.988Z,17.5
2022-08-29T00:31:10.329Z,17.48
2022-08-29T00:32:44.018Z,17.43
2022-08-29T00:33:10.757Z,17.43
2022-08-29T00:34:10.942Z,17.43
2022-08-29T00:35:11.021Z,17.44
2022-08-29T00:36:11.526Z,17.43
2022-08-29T00:37:10.865Z,17.43
2022-08-29T00:38:11.758Z,17.43
2022-08-29T00:39:13.164Z,17.43
2022-08-29T00:40:10.766Z,17.43
2022-08-29T00:41:10.788Z,17.43
2022-08-29T00:42:11.004Z,17.43
2022-08-29T00:43:10.246Z,17.45
2022-08-29T00:44:10.500Z,17.43
2022-08-29T00:45:10.897Z,17.43
2022-08-29T00:46:11.099Z,17.41
2022-08-29T00:47:10.565Z,17.43
2022-08-29T00:48:10.809Z,17.37
2022-08-29T00:49:10.840Z,17.37
2022-08-29T00:50:11.217Z,17.37
2022-08-29T00:51:10.658Z,17.37
2022-08-29T00:52:10.934Z,17.37
2022-08-29T00:53:11.536Z,17.37
2022-08-29T00:54:11.106Z,17.37
2022-08-29T00:55:10.651Z,17.37
2022-08-29T00:56:11.117Z,17.37
2022-08-29T00:57:10.584Z,17.37
2022-08-29T00:58:11.089Z,17.36
2022-08-29T00:59:10.774Z,17.37
2022-08-29T01:00:12.051Z,17.35
2022-08-29T01:01:10.678Z,17.35
2022-08-29T01:02:10.907Z,17.34
2022-08-29T01:03:11.235Z,17.32
2022-08-29T01:05:10.155Z,17.31
2022-08-29T01:06:10.120Z,17.31
2022-08-29T01:07:10.152Z,17.31
2022-08-29T01:08:10.526Z,17.31
2022-08-29T01:09:10.798Z,17.31
2022-08-29T01:11:10.992Z,17.31
2022-08-29T01:12:10.343Z,17.31
2022-08-29T01:13:10.647Z,17.31
2022-08-29T01:14:10.799Z,17.31
2022-08-29T01:15:11.403Z,17.31
2022-08-29T01:16:10.799Z,17.30
2022-08-29T01:17:10.921Z,17.31
2022-08-29T01:18:11.448Z,17.28
2022-08-29T01:19:10.770Z,17.25
2022-08-29T01:20:11.061Z,17.25
2022-08-29T01:21:10.521Z,17.25
2022-08-29T01:22:10.748Z,17.25
2022-08-29T01:23:11.183Z,17.26
2022-08-29T01:24:13.737Z,17.26
2022-08-29T01:25:11.028Z,17.25
2022-08-29T01:26:10.685Z,17.25
2022-08-29T01:27:11.011Z,17.25
2022-08-29T01:28:11.041Z,17.25
2022-08-29T01:29:10.491Z,17.25
2022-08-29T01:30:11.455Z,17.23
2022-08-29T01:31:10.929Z,17.22
2022-08-29T01:32:11.104Z,17.18
2022-08-29T01:33:13.486Z,17.18
2022-08-29T01:34:10.751Z,17.18
2022-08-29T01:35:11.228Z,17.18
2022-08-29T01:36:10.756Z,17.18
2022-08-29T01:37:16.127Z,17.18
2022-08-29T01:38:10.122Z,17.18
2022-08-29T01:39:10.386Z,17.18
2022-08-29T01:40:10.837Z,17.18
2022-08-29T01:41:11.072Z,17.18
2022-08-29T01:42:10.094Z,17.18
2022-08-29T01:43:10.416Z,17.18
2022-08-29T01:44:10.655Z,17.18
2022-08-29T01:45:13.567Z,17.18
2022-08-29T01:46:10.851Z,17.17
2022-08-29T01:47:10.756Z,17.15
2022-08-29T01:48:10.881Z,17.15
2022-08-29T01:49:10.948Z,17.14
2022-08-29T01:50:11.252Z,17.12
2022-08-29T01:51:10.687Z,17.12
2022-08-29T01:52:10.874Z,17.12
2022-08-29T01:53:11.082Z,17.12
2022-08-29T01:54:10.562Z,17.12
2022-08-29T01:55:10.975Z,17.12
2022-08-29T01:56:11.186Z,17.12
2022-08-29T01:57:16.379Z,17.12
2022-08-29T01:58:11.203Z,17.12
2022-08-29T01:59:10.455Z,17.12
2022-08-29T02:00:11.984Z,17.12
2022-08-29T02:01:10.476Z,17.12
2022-08-29T02:02:10.890Z,17.11
2022-08-29T02:03:10.982Z,17.11
2022-08-29T02:04:10.435Z,17.12
2022-08-29T02:05:11.341Z,17.09
2022-08-29T02:06:10.789Z,17.10
2022-08-29T02:07:16.323Z,18.54
2022-08-29T02:08:10.752Z,18.37
2022-08-29T02:09:14.691Z,19.03
2022-08-29T02:10:11.003Z,18.93
2022-08-29T02:11:10.333Z,18.48
2022-08-29T02:12:11.159Z,18.54
2022-08-29T02:13:10.424Z,18.29
2022-08-29T02:14:13.247Z,18.06
2022-08-29T02:15:11.082Z,19.14
2022-08-29T02:16:10.421Z,18.73
2022-08-29T02:17:10.505Z,18.80
2022-08-29T02:18:11.175Z,18.78
2022-08-29T02:19:10.640Z,18.34
2022-08-29T02:20:11.208Z,18.23
2022-08-29T02:21:10.669Z,18.37
2022-08-29T02:22:10.360Z,18.38
2022-08-29T02:23:33.481Z,17.67
2022-08-29T02:24:28.657Z,17.98
2022-08-29T02:25:11.168Z,17.98
2022-08-29T02:26:10.451Z,18.11
2022-08-29T02:27:12.987Z,17.72
2022-08-29T02:28:10.390Z,17.79
2022-08-29T02:29:10.761Z,18.17
2022-08-29T02:30:11.429Z,18.20
2022-08-29T02:31:10.903Z,18.93
2022-08-29T02:32:11.554Z,19.81
2022-08-29T02:33:11.005Z,17.69
2022-08-29T02:34:11.565Z,17.88
2022-08-29T02:35:13.366Z,17.86
2022-08-29T02:36:11.143Z,17.81
2022-08-29T02:37:10.526Z,17.95
2022-08-29T02:38:10.514Z,18.02
2022-08-29T02:39:10.921Z,17.86
2022-08-29T02:40:11.349Z,17.97
2022-08-29T02:41:16.014Z,17.94
2022-08-29T02:42:10.323Z,17.90
2022-08-29T02:43:10.490Z,17.77
2022-08-29T02:44:10.588Z,17.79
2022-08-29T02:45:10.949Z,17.79
2022-08-29T02:46:10.802Z,17.72
2022-08-29T02:47:11.115Z,17.59
2022-08-29T02:48:10.438Z,17.68
2022-08-29T02:49:10.698Z,17.60
2022-08-29T02:50:10.774Z,17.81
2022-08-29T02:51:10.807Z,17.72
2022-08-29T02:52:11.070Z,17.94
2022-08-29T02:53:10.286Z,17.76
2022-08-29T02:54:10.333Z,17.59
2022-08-29T02:55:10.947Z,17.52
2022-08-29T02:56:15.433Z,17.74
2022-08-29T02:57:10.674Z,17.77
2022-08-29T02:58:10.733Z,17.77
2022-08-29T02:59:10.894Z,17.85
2022-08-29T03:00:12.516Z,18.80
2022-08-29T03:01:10.949Z,18.37
2022-08-29T03:02:10.830Z,17.98
2022-08-29T03:03:10.930Z,18.14
2022-08-29T03:04:10.899Z,17.93
2022-08-29T03:05:11.145Z,17.97
2022-08-29T03:06:10.436Z,18.45
2022-08-29T03:07:10.899Z,17.76
2022-08-29T03:08:11.298Z,17.54
2022-08-29T03:09:11.031Z,17.49
2022-08-29T03:10:10.409Z,17.65
2022-08-29T03:11:10.823Z,18.19
2022-08-29T03:12:10.828Z,17.54
2022-08-29T03:13:11.115Z,17.45
2022-08-29T03:14:10.493Z,17.10
2022-08-29T03:15:11.176Z,16.97
2022-08-29T03:16:10.891Z,17.09
2022-08-29T03:17:10.993Z,17.13
2022-08-29T03:18:10.354Z,17.08
2022-08-29T03:19:10.675Z,17.07
2022-08-29T03:20:11.108Z,17.09
2022-08-29T03:21:10.471Z,17.45
2022-08-29T03:22:10.881Z,17.41
2022-08-29T03:23:11.858Z,17.30
2022-08-29T03:24:11.060Z,17.28
2022-08-29T03:25:10.727Z,17.31
2022-08-29T03:26:11.031Z,17.30
2022-08-29T03:27:10.389Z,17.46
2022-08-29T03:28:10.624Z,17.84
2022-08-29T03:29:10.746Z,17.55
2022-08-29T03:30:14.568Z,17.79
2022-08-29T03:31:11.292Z,17.41
2022-08-29T03:32:10.514Z,17.29
2022-08-29T03:33:15.283Z,17.86
2022-08-29T03:34:10.370Z,17.60
2022-08-29T03:35:10.614Z,17.36
2022-08-29T03:37:10.750Z,17.16
2022-08-29T03:38:11.047Z,17.20
2022-08-29T03:39:10.332Z,17.14
2022-08-29T03:40:10.877Z,17.12
2022-08-29T03:41:11.158Z,17.19
2022-08-29T03:42:10.224Z,17.15
2022-08-29T03:43:10.640Z,17.14
2022-08-29T03:44:10.856Z,17.13
2022-08-29T03:45:11.339Z,17.23
2022-08-29T03:46:10.724Z,17.08
2022-08-29T03:47:10.895Z,17.22
2022-08-29T03:48:11.258Z,17.10
2022-08-29T03:49:10.482Z,17.04
2022-08-29T03:50:10.860Z,17.03
2022-08-29T03:51:11.252Z,16.98
2022-08-29T03:52:10.418Z,16.97
2022-08-29T03:53:10.691Z,16.96
2022-08-29T03:54:10.767Z,17.08
2022-08-29T03:55:11.184Z,17.09
2022-08-29T03:56:18.631Z,17.15
2022-08-29T03:57:10.590Z,17.15
2022-08-29T03:58:11.233Z,17.28
2022-08-29T03:59:10.461Z,17.18
2022-08-29T04:00:11.996Z,17.05
2022-08-29T04:01:10.370Z,17.03
2022-08-29T04:02:11.048Z,17.02
2022-08-29T04:03:11.161Z,17.04
2022-08-29T04:04:16.018Z,17.08
2022-08-29T04:05:12.006Z,17.20
2022-08-29T04:06:10.260Z,17.20
2022-08-29T04:07:10.602Z,17.17
2022-08-29T04:08:10.480Z,17.20
2022-08-29T04:09:10.727Z,17.26
2022-08-29T04:10:11.288Z,17.13
2022-08-29T04:11:11.071Z,17.02
2022-08-29T04:12:10.559Z,17.18
2022-08-29T04:13:10.767Z,17.37
2022-08-29T04:14:11.053Z,16.82
2022-08-29T04:15:10.861Z,16.81
2022-08-29T04:16:19.153Z,16.81
2022-08-29T04:17:10.639Z,16.84
2022-08-29T04:18:11.875Z,16.91
2022-08-29T04:19:12.514Z,16.99
2022-08-29T04:20:11.307Z,17.15
2022-08-29T04:21:10.522Z,17.23
2022-08-29T04:22:10.665Z,17.14
2022-08-29T04:23:10.973Z,17.11
2022-08-29T04:24:10.402Z,17.07
2022-08-29T04:25:11.056Z,17
2022-08-29T04:26:39.325Z,17.06
2022-08-29T04:27:10.874Z,17.06
2022-08-29T04:28:11.348Z,17.07
2022-08-29T04:29:10.767Z,17.05
2022-08-29T04:30:11.609Z,17.06
2022-08-29T04:31:11.084Z,17.11
2022-08-29T04:32:10.918Z,17.11
2022-08-29T04:33:12.838Z,17.11
2022-08-29T04:34:10.886Z,17.16
2022-08-29T04:35:11.330Z,17.30
2022-08-29T04:36:15.388Z,18.38
2022-08-29T04:37:10.612Z,17.81
2022-08-29T04:38:11.381Z,17.53
2022-08-29T04:39:10.958Z,16.99
2022-08-29T04:40:12.278Z,17.06
2022-08-29T04:41:10.919Z,17.06
2022-08-29T04:42:11.033Z,16.99
2022-08-29T04:43:10.645Z,16.95
2022-08-29T04:44:11.270Z,16.96
2022-08-29T04:45:11.312Z,16.99
2022-08-29T04:47:11.139Z,17.23
2022-08-29T04:48:10.982Z,16.87
2022-08-29T04:49:10.689Z,16.71
2022-08-29T04:50:11.344Z,16.74
2022-08-29T04:51:10.632Z,16.89
2022-08-29T04:52:10.988Z,16.80
2022-08-29T04:53:10.503Z,16.79
2022-08-29T04:54:10.759Z,16.74
2022-08-29T04:55:11.085Z,16.66
2022-08-29T04:56:11.358Z,16.67
2022-08-29T04:57:11.339Z,16.63
2022-08-29T04:58:13.524Z,16.65
2022-08-29T04:59:10.907Z,16.61
2022-08-29T05:00:12.271Z,16.60
2022-08-29T05:01:11.054Z,16.60
2022-08-29T05:02:10.506Z,16.61
2022-08-29T05:03:11.136Z,16.56
2022-08-29T05:04:14.812Z,16.56
2022-08-29T05:05:11.487Z,16.60
2022-08-29T05:06:10.808Z,16.62
2022-08-29T05:07:11.148Z,16.87
2022-08-29T05:08:10.954Z,17.29
2022-08-29T05:09:10.605Z,17.47
2022-08-29T05:10:11.113Z,17.17
2022-08-29T05:11:10.439Z,16.77
2022-08-29T05:12:13.779Z,16.52
2022-08-29T05:13:10.922Z,16.51
2022-08-29T05:14:11.460Z,16.5
2022-08-29T05:15:11.247Z,16.5
2022-08-29T05:16:10.874Z,16.67
2022-08-29T05:17:11.399Z,16.5
2022-08-29T05:18:10.872Z,16.47
2022-08-29T05:19:16.066Z,16.47
2022-08-29T05:20:10.805Z,16.44
2022-08-29T05:21:11.582Z,16.43
2022-08-29T05:22:11.575Z,16.43
2022-08-29T05:23:10.961Z,16.49
2022-08-29T05:24:10.933Z,16.44
2022-08-29T05:25:15.873Z,16.46
2022-08-29T05:26:10.470Z,16.52
2022-08-29T05:27:10.873Z,16.43
2022-08-29T05:28:11.477Z,16.43
2022-08-29T05:29:12.457Z,16.70
2022-08-29T05:30:10.993Z,16.43
2022-08-29T05:31:15.528Z,16.43
2022-08-29T05:32:10.946Z,16.80
2022-08-29T05:33:11.246Z,16.55
2022-08-29T05:34:36.266Z,16.47
2022-08-29T05:35:10.658Z,16.47
2022-08-29T05:36:11.002Z,16.45
2022-08-29T05:37:10.454Z,16.43
2022-08-29T05:38:13.032Z,16.43
2022-08-29T05:39:13.890Z,16.43
2022-08-29T05:40:11.659Z,16.43
2022-08-29T05:41:10.832Z,16.43
2022-08-29T05:42:11.274Z,16.43
2022-08-29T05:43:10.962Z,16.43
2022-08-29T05:44:11.095Z,16.43
2022-08-29T05:45:10.812Z,16.43
2022-08-29T05:46:11.374Z,16.43
2022-08-29T05:47:10.637Z,16.43
2022-08-29T05:48:10.747Z,16.43
2022-08-29T05:49:10.943Z,16.43
2022-08-29T05:50:11.545Z,16.43
2022-08-29T05:51:10.889Z,16.43
2022-08-29T05:52:10.954Z,16.43
2022-08-29T05:53:11.185Z,16.43
2022-08-29T05:54:10.748Z,16.43
2022-08-29T05:55:11.275Z,16.43
2022-08-29T05:56:10.635Z,16.43
2022-08-29T05:57:14.199Z,16.43
2022-08-29T05:58:11.198Z,16.44
2022-08-29T05:59:10.599Z,16.43
2022-08-29T06:00:11.745Z,16.44
2022-08-29T06:01:11.138Z,16.48
2022-08-29T06:02:10.752Z,16.43
2022-08-29T06:03:11.422Z,16.44
2022-08-29T06:04:11.349Z,16.45
2022-08-29T06:05:14.176Z,16.45
2022-08-29T06:06:10.877Z,16.45
2022-08-29T06:07:11.363Z,16.46
2022-08-29T06:08:11.225Z,16.46
2022-08-29T06:09:11.052Z,16.48
2022-08-29T06:10:10.856Z,16.46
2022-08-29T06:11:11.719Z,16.5
2022-08-29T06:12:11.556Z,16.5
2022-08-29T06:13:11.091Z,16.5
2022-08-29T06:14:10.695Z,16.5
2022-08-29T06:15:11.701Z,16.51
2022-08-29T06:16:11.656Z,16.55
2022-08-29T06:17:12.804Z,16.63
2022-08-29T06:18:11.263Z,16.51
2022-08-29T06:19:10.974Z,16.5
2022-08-29T06:20:11.164Z,16.5
2022-08-29T06:21:10.820Z,16.5
2022-08-29T06:22:13.689Z,16.61
2022-08-29T06:23:10.826Z,16.52
2022-08-29T06:24:11.410Z,16.5
2022-08-29T06:25:41.822Z,16.5
2022-08-29T06:26:11.435Z,16.5
2022-08-29T06:27:12.700Z,16.5
2022-08-29T06:28:11.039Z,16.5
2022-08-29T06:29:10.444Z,16.5
2022-08-29T06:30:11.435Z,16.5
2022-08-29T06:31:10.858Z,16.5
2022-08-29T06:32:11.292Z,16.5
2022-08-29T06:33:11.144Z,16.5
2022-08-29T06:34:10.858Z,16.5
2022-08-29T06:35:11.391Z,16.52
2022-08-29T06:36:10.748Z,16.51
2022-08-29T06:37:11.037Z,16.56
2022-08-29T06:38:17.207Z,16.55
2022-08-29T06:39:10.908Z,16.55
2022-08-29T06:40:11.921Z,16.92
2022-08-29T06:41:11.490Z,16.64
2022-08-29T06:42:11.003Z,16.70
2022-08-29T06:43:15.694Z,16.67
2022-08-29T06:44:11.141Z,16.58
2022-08-29T06:45:18.984Z,16.69
2022-08-29T06:46:10.763Z,16.69
2022-08-29T06:47:11.317Z,16.71
2022-08-29T06:48:10.864Z,16.87
2022-08-29T06:49:11.301Z,16.75
2022-08-29T06:50:10.851Z,16.56
2022-08-29T06:51:11.205Z,16.56
2022-08-29T06:52:12.980Z,16.56
2022-08-29T06:53:37.349Z,16.63
2022-08-29T06:54:11.280Z,16.63
2022-08-29T06:55:10.929Z,16.59
2022-08-29T06:56:15.121Z,16.60
2022-08-29T06:57:10.621Z,16.61
2022-08-29T06:58:11.095Z,16.59
2022-08-29T06:59:10.521Z,16.67
2022-08-29T07:00:25.409Z,16.61
2022-08-29T07:01:11.240Z,16.61
2022-08-29T07:02:10.864Z,16.62
2022-08-29T07:03:30.312Z,16.62
2022-08-29T07:04:20.839Z,16.62
2022-08-29T07:05:10.663Z,16.61
2022-08-29T07:06:11.058Z,17.28
2022-08-29T07:07:10.747Z,17.81
2022-08-29T07:08:11.387Z,16.63
2022-08-29T07:09:11.084Z,16.62
2022-08-29T07:10:10.944Z,16.62
2022-08-29T07:11:11.348Z,16.62
2022-08-29T07:12:10.637Z,16.65
2022-08-29T07:13:10.919Z,16.63
2022-08-29T07:14:11.645Z,16.62
2022-08-29T07:15:11.667Z,16.68
2022-08-29T07:16:11.386Z,17.12
2022-08-29T07:17:10.810Z,17.04
2022-08-29T07:18:10.951Z,16.88
2022-08-29T07:19:10.666Z,16.73
2022-08-29T07:21:11.042Z,16.68
2022-08-29T07:22:11.027Z,16.68
2022-08-29T07:23:17.690Z,16.73
2022-08-29T07:24:11.360Z,16.87
2022-08-29T07:25:11.370Z,17.02
2022-08-29T07:26:11.179Z,16.68
2022-08-29T07:27:10.741Z,16.81
2022-08-29T07:28:14.093Z,16.68
2022-08-29T07:29:11.033Z,16.68
2022-08-29T07:30:11.254Z,16.68
2022-08-29T07:31:11.194Z,16.68
2022-08-29T07:32:11.124Z,16.68
2022-08-29T07:33:38.877Z,16.71
2022-08-29T07:34:11.475Z,16.71
2022-08-29T07:35:18.603Z,16.71
2022-08-29T07:36:10.914Z,16.69
2022-08-29T07:37:11.401Z,16.71
2022-08-29T07:38:10.624Z,16.73
2022-08-29T07:39:11.240Z,16.93
2022-08-29T07:40:10.827Z,16.71
2022-08-29T07:41:11.188Z,17.02
2022-08-29T07:42:11.814Z,17.06
2022-08-29T07:43:13.497Z,16.75
2022-08-29T07:44:11.795Z,16.79
2022-08-29T07:45:12.482Z,17.79
2022-08-29T07:46:11.591Z,16.69
2022-08-29T07:47:11.297Z,16.68
2022-08-29T07:48:14.119Z,16.68
2022-08-29T07:50:11.463Z,16.68
2022-08-29T07:51:14.195Z,16.68
2022-08-29T07:52:10.547Z,16.69
2022-08-29T07:53:11.459Z,16.70
2022-08-29T07:54:11.638Z,16.73
2022-08-29T07:55:11.157Z,16.72
2022-08-29T07:56:10.846Z,16.73
2022-08-29T07:57:11.453Z,16.75
2022-08-29T07:58:11.362Z,16.75
2022-08-29T07:59:10.784Z,16.75
2022-08-29T08:00:12.021Z,16.75
2022-08-29T08:01:20.867Z,17.04
2022-08-29T08:02:11.606Z,16.76
2022-08-29T08:03:11.418Z,16.84
2022-08-29T08:04:11.289Z,16.98
2022-08-29T08:05:11.327Z,17.19
2022-08-29T08:06:12.887Z,16.81
2022-08-29T08:07:17.744Z,17.29
2022-08-29T08:08:19.026Z,16.80
2022-08-29T08:09:11.063Z,17.20
2022-08-29T08:10:10.726Z,16.82
2022-08-29T08:11:11.447Z,16.80
2022-08-29T08:12:12.091Z,16.80
2022-08-29T08:13:10.882Z,16.76
2022-08-29T08:14:11.320Z,16.80
2022-08-29T08:15:11.088Z,17.30
2022-08-29T08:16:10.333Z,16.87
2022-08-29T08:17:10.865Z,17.95
2022-08-29T08:18:11.534Z,17.20
2022-08-29T08:19:11.303Z,17.36
2022-08-29T08:20:10.890Z,17.19
2022-08-29T08:21:10.915Z,17.62
2022-08-29T08:22:10.950Z,16.84
2022-08-29T08:23:14.783Z,17.67
2022-08-29T08:24:16.105Z,16.95
2022-08-29T08:25:11.040Z,16.79
2022-08-29T08:26:10.973Z,16.81
2022-08-29T08:27:11.509Z,16.89
2022-08-29T08:28:11.101Z,16.80
2022-08-29T08:29:10.638Z,16.81
2022-08-29T08:30:11.706Z,16.81
2022-08-29T08:31:11.242Z,16.81
2022-08-29T08:32:10.965Z,16.81
2022-08-29T08:33:11.698Z,16.81
2022-08-29T08:34:11.132Z,16.81
2022-08-29T08:35:11.152Z,16.83
2022-08-29T08:36:10.813Z,16.81
2022-08-29T08:37:10.994Z,16.81
2022-08-29T08:38:11.297Z,16.82
2022-08-29T08:39:11.240Z,16.81
2022-08-29T08:40:11.270Z,16.81
2022-08-29T08:41:11.085Z,16.81
2022-08-29T08:42:10.895Z,16.81
2022-08-29T08:43:11.867Z,16.81
2022-08-29T08:44:11.259Z,16.82
2022-08-29T08:45:11.105Z,16.81
2022-08-29T08:46:10.980Z,16.81
2022-08-29T08:47:10.699Z,16.81
2022-08-29T08:48:11.120Z,16.81
2022-08-29T08:49:10.914Z,16.81
2022-08-29T08:50:11.630Z,16.81
2022-08-29T08:51:10.999Z,17.18
2022-08-29T08:52:15.450Z,18.14
2022-08-29T08:53:11.149Z,17.54
2022-08-29T08:54:10.616Z,17.01
2022-08-29T08:55:11.058Z,17.36
2022-08-29T08:56:10.317Z,17.62
2022-08-29T08:57:10.955Z,16.84
2022-08-29T08:58:11.557Z,18.01
2022-08-29T08:59:10.897Z,17.71
2022-08-29T09:00:12.825Z,17.32
2022-08-29T09:01:11.196Z,17.19
2022-08-29T09:02:11.362Z,16.81
2022-08-29T09:03:10.963Z,16.83
2022-08-29T09:04:10.538Z,16.85
2022-08-29T09:05:11.317Z,16.85
2022-08-29T09:06:15.893Z,16.87
2022-08-29T09:07:11.346Z,16.87
2022-08-29T09:08:11.309Z,17.57
2022-08-29T09:09:15.434Z,17.37
2022-08-29T09:10:11.257Z,17.15
2022-08-29T09:11:10.925Z,17.09
2022-08-29T09:12:11.437Z,17.21
2022-08-29T09:13:11.072Z,16.94
2022-08-29T09:14:11.088Z,16.84
2022-08-29T09:15:14.995Z,16.87
2022-08-29T09:16:10.706Z,16.87
2022-08-29T09:17:11.590Z,16.86
2022-08-29T09:18:13.615Z,16.87
2022-08-29T09:19:10.995Z,16.87
2022-08-29T09:20:10.568Z,16.87
2022-08-29T09:21:43.505Z,16.88
2022-08-29T09:22:11.406Z,16.88
2022-08-29T09:23:11.139Z,16.87
2022-08-29T09:24:10.816Z,17.27
2022-08-29T09:25:11.332Z,17.23
2022-08-29T09:26:11.248Z,17.14
2022-08-29T09:27:10.910Z,17.48
2022-08-29T09:28:11.391Z,17.20
2022-08-29T09:29:11.135Z,17.13
2022-08-29T09:30:11.015Z,16.96
2022-08-29T09:31:10.606Z,16.88
2022-08-29T09:32:11.352Z,16.87
2022-08-29T09:33:11.099Z,16.87
2022-08-29T09:34:12.119Z,17.13
2022-08-29T09:35:13.418Z,17.05
2022-08-29T09:36:30.305Z,16.87
2022-08-29T09:37:10.990Z,16.87
2022-08-29T09:38:10.492Z,16.87
2022-08-29T09:39:11.108Z,16.87
2022-08-29T09:40:10.728Z,16.87
2022-08-29T09:41:11.063Z,16.87
2022-08-29T09:42:10.381Z,16.87
2022-08-29T09:43:11.222Z,16.87
2022-08-29T09:44:10.867Z,16.87
2022-08-29T09:45:11.441Z,16.88
2022-08-29T09:46:11.949Z,16.87
2022-08-29T09:47:10.580Z,16.87
2022-08-29T09:48:11.263Z,16.88
2022-08-29T09:49:10.947Z,16.90
2022-08-29T09:50:11.705Z,16.89
2022-08-29T09:51:11.337Z,16.92
2022-08-29T09:52:38.918Z,16.90
2022-08-29T09:53:29.241Z,16.92
2022-08-29T09:54:10.893Z,16.92
2022-08-29T09:55:11.103Z,16.93
2022-08-29T09:56:10.769Z,16.93
2022-08-29T09:57:11.338Z,16.93
2022-08-29T09:58:11.398Z,16.93
2022-08-29T09:59:11.204Z,16.93
2022-08-29T10:00:12.305Z,16.93
2022-08-29T10:01:11.764Z,16.93
2022-08-29T10:02:12.836Z,16.93
2022-08-29T10:03:11.617Z,16.93
2022-08-29T10:04:11.717Z,16.93
2022-08-29T10:05:17.032Z,16.93
2022-08-29T10:06:10.425Z,16.93
2022-08-29T10:07:10.741Z,16.93
2022-08-29T10:08:11.106Z,16.93
2022-08-29T10:09:10.606Z,16.93
2022-08-29T10:10:11.194Z,16.93
2022-08-29T10:11:11.843Z,16.93
2022-08-29T10:12:11.396Z,16.93
2022-08-29T10:13:11.034Z,16.93
2022-08-29T10:14:16.188Z,16.93
2022-08-29T10:15:19.733Z,16.93
2022-08-29T10:16:11.355Z,16.93
2022-08-29T10:17:11.429Z,16.93
2022-08-29T10:18:11.276Z,16.93
2022-08-29T10:19:10.971Z,16.93
2022-08-29T10:20:11.588Z,16.93
2022-08-29T10:21:11.171Z,16.94
2022-08-29T10:22:10.788Z,16.93
2022-08-29T10:23:11.307Z,16.93
2022-08-29T10:24:13.642Z,16.93
2022-08-29T10:25:11.655Z,16.93
2022-08-29T10:26:11.252Z,16.93
2022-08-29T10:27:10.914Z,16.93
2022-08-29T10:28:11.300Z,16.93
2022-08-29T10:29:10.853Z,16.93
2022-08-29T10:30:11.596Z,17.09
2022-08-29T10:31:10.805Z,16.97
2022-08-29T10:32:11.173Z,16.94
2022-08-29T10:33:10.971Z,16.95
2022-08-29T10:34:11.214Z,17.01
2022-08-29T10:35:11.326Z,17.01
2022-08-29T10:36:11.117Z,17.02
2022-08-29T10:37:10.720Z,17.05
2022-08-29T10:38:11.154Z,17.01
2022-08-29T10:39:10.950Z,16.96
2022-08-29T10:40:17.494Z,17.03
2022-08-29T10:41:11.833Z,17.03
2022-08-29T10:42:11.512Z,17
2022-08-29T10:43:11.867Z,17
2022-08-29T10:44:11.548Z,17
2022-08-29T10:45:11.252Z,17
2022-08-29T10:46:10.981Z,17.07
2022-08-29T10:47:10.885Z,17.04
2022-08-29T10:48:11.140Z,17.10
2022-08-29T10:49:10.808Z,17
2022-08-29T10:51:11.026Z,17
2022-08-29T10:52:10.317Z,17.08
2022-08-29T10:53:11.090Z,17.16
2022-08-29T10:54:10.925Z,17.08
2022-08-29T10:55:11.108Z,17
2022-08-29T10:56:10.879Z,17.02
2022-08-29T10:57:11.386Z,17
2022-08-29T10:58:16.793Z,17
2022-08-29T10:59:11.318Z,17
2022-08-29T11:00:12.167Z,17.01
2022-08-29T11:01:13.202Z,17.04
2022-08-29T11:02:10.843Z,17.16
2022-08-29T11:03:11.492Z,17.14
2022-08-29T11:04:11.381Z,17.17
2022-08-29T11:05:12.047Z,17.03
2022-08-29T11:06:10.478Z,17.01
2022-08-29T11:07:11.093Z,17.05
2022-08-29T11:08:14.027Z,17.05
2022-08-29T11:09:10.559Z,17.07
2022-08-29T11:10:11.074Z,17.06
2022-08-29T11:11:10.893Z,17.04
2022-08-29T11:12:11.095Z,17.09
2022-08-29T11:13:11.250Z,17.08
2022-08-29T11:14:10.874Z,17.06
2022-08-29T11:15:11.764Z,17.05
2022-08-29T11:16:11.274Z,17.10
2022-08-29T11:17:10.636Z,17.10
2022-08-29T11:18:11.299Z,17.08
2022-08-29T11:19:10.987Z,17.12
2022-08-29T11:20:10.646Z,17.08
2022-08-29T11:21:11.631Z,17.06
2022-08-29T11:22:11.261Z,17.09
2022-08-29T11:23:11.129Z,17.07
2022-08-29T11:24:10.590Z,17.06
2022-08-29T11:25:11.604Z,17.06
2022-08-29T11:26:11.493Z,17.06
2022-08-29T11:27:10.804Z,17.06
2022-08-29T11:28:11.503Z,17.06
2022-08-29T11:29:11.333Z,17.06
2022-08-29T11:30:11.274Z,17.07
2022-08-29T11:31:19.085Z,17.19
2022-08-29T11:32:10.881Z,17.16
2022-08-29T11:33:19.662Z,17.09
2022-08-29T11:34:11.266Z,17.12
2022-08-29T11:35:11.330Z,17.12
2022-08-29T11:36:11.283Z,17.12
2022-08-29T11:37:10.769Z,17.11
2022-08-29T11:38:11.040Z,17.08
2022-08-29T11:39:10.598Z,17.12
2022-08-29T11:40:11.641Z,17.11
2022-08-29T11:41:33.834Z,17.11
2022-08-29T11:42:11.400Z,17.11
2022-08-29T11:43:16.271Z,17.12
2022-08-29T11:44:10.860Z,17.12
2022-08-29T11:45:11.348Z,17.12
2022-08-29T11:46:10.705Z,17.12
2022-08-29T11:47:13.175Z,17.12
2022-08-29T11:48:11.121Z,17.12
2022-08-29T11:49:10.626Z,17.12
2022-08-29T11:50:11.446Z,17.24
2022-08-29T11:51:11.188Z,17.23
2022-08-29T11:52:11.145Z,17.16
2022-08-29T11:53:10.901Z,17.14
2022-08-29T11:54:11.305Z,17.16
2022-08-29T11:55:10.872Z,17.14
2022-08-29T11:56:11.543Z,17.12
2022-08-29T11:57:11.485Z,17.12
2022-08-29T11:58:15.174Z,17.12
2022-08-29T11:59:10.878Z,17.12
2022-08-29T12:00:12.417Z,17.15
2022-08-29T12:01:18.854Z,17.13
2022-08-29T12:02:10.867Z,17.14
2022-08-29T12:03:28.749Z,17.14
2022-08-29T12:04:11.182Z,17.14
2022-08-29T12:05:11.468Z,17.15
2022-08-29T12:06:11.089Z,17.15
2022-08-29T12:07:30.041Z,17.28
2022-08-29T12:08:39.862Z,17.19
2022-08-29T12:09:16.918Z,17.19
2022-08-29T12:10:11.346Z,17.18
2022-08-29T12:11:11.110Z,17.17
2022-08-29T12:12:10.987Z,17.18
2022-08-29T12:13:38.531Z,17.18
2022-08-29T12:14:11.206Z,17.18
2022-08-29T12:15:10.971Z,17.18
2022-08-29T12:16:12.500Z,17.18
2022-08-29T12:17:11.033Z,17.18
2022-08-29T12:18:10.894Z,17.19
2022-08-29T12:19:11.251Z,17.18
2022-08-29T12:20:10.922Z,17.18
2022-08-29T12:21:11.016Z,17.18
2022-08-29T12:22:25.320Z,17.22
2022-08-29T12:23:11.213Z,17.22
2022-08-29T12:24:10.854Z,17.18
2022-08-29T12:25:11.526Z,17.29
2022-08-29T12:27:15.659Z,17.18
2022-08-29T12:28:10.837Z,17.18
2022-08-29T12:29:14.270Z,17.18
2022-08-29T12:30:11.346Z,17.18
2022-08-29T12:31:11.303Z,17.18
2022-08-29T12:32:31.541Z,17.18
2022-08-29T12:33:11.644Z,17.18
2022-08-29T12:34:11.595Z,17.19
2022-08-29T12:35:14.448Z,17.19
2022-08-29T12:36:11.098Z,17.20
2022-08-29T12:37:10.801Z,17.19
2022-08-29T12:38:11.328Z,17.22
2022-08-29T12:39:11.056Z,17.25
2022-08-29T12:40:11.038Z,17.25
2022-08-29T12:41:10.779Z,17.25
2022-08-29T12:42:11.103Z,17.25
2022-08-29T12:43:10.992Z,17.25
2022-08-29T12:44:10.638Z,17.25
2022-08-29T12:45:11.576Z,17.25
2022-08-29T12:46:11.390Z,17.25
2022-08-29T12:47:11.494Z,17.25
2022-08-29T12:48:11.341Z,17.25
2022-08-29T12:49:10.857Z,17.25
2022-08-29T12:50:11.681Z,17.25
2022-08-29T12:51:46.798Z,17.25
2022-08-29T12:52:11.397Z,17.25
2022-08-29T12:53:11.020Z,17.25
2022-08-29T12:54:10.833Z,17.25
2022-08-29T12:55:11.518Z,17.25
2022-08-29T12:56:11.000Z,17.25
2022-08-29T12:57:10.621Z,17.25
2022-08-29T12:58:11.422Z,17.25
2022-08-29T12:59:11.028Z,17.25
2022-08-29T13:00:11.667Z,17.25
2022-08-29T13:01:11.787Z,17.28
2022-08-29T13:02:11.358Z,17.31